Relevés horaires Beauvechain (Belgique)


Relevés horaires à Beauvechain - Mercredi 06 Déc. 2017
Heure UTC1 Température [°C] Vent [km/h] Hum. [%] Pres.4 [hPa] Visi. [Km] Nébu. [octa] Préc.5 [mm] Cond.
2m. Res. Ros. Dir.2 Vit. Moy. Raf.3
23:00 5.5 3 1.1 SSO 11.1 -- 18.5 73 1026(-2.1/3h) 20 -- -- --
22:00 5.5 3.9 2.6 SSO 7.4 -- 13.0 82 1026.7(-1.9/3h) 19 -- -- --
21:00 5.7 3.6 3.0 SSO 9.3 -- 13.0 83 1027.5(-1.8/3h) 17 -- -- --
20:00 5.9 4.3 3.4 SSO 7.4 -- 11.1 84 1028.2(-1.5/3h) 14 -- -- --
19:00 6.0 4.5 3.5 SSO 7.4 -- 13.0 84 1028.7(-1.2/3h) 14 -- -- --
18:00 6.1 4.1 3.7 SSO 9.3 -- 13.0 85 1029.4(-1.0/3h) 15 -- -- --
17:00 6.4 4.9 3.8 SSO 7.4 -- 11.1 83 1029.7(-0.9/3h) 17 -- -- --
16:00 6.5 5 3.9 SSO 7.4 -- 9.3 83 1030(-1.2/3h) 18 7/8 -- --
15:00 6.8 5.4 4.2 SSO 7.4 -- 13.0 83 1030.4(-1.4/3h) 15 7/8 -- --
14:00 6.9 5.5 4.4 SSO 7.4 -- 13.0 84 1030.7(-1.7/3h) 15 7/8 -- --
13:00 6.6 4.7 4.4 SSO 9.3 -- 13.0 86 1031.4(-1.6/3h) 15 7/8 -- --
12:00 6.8 5 4.2 SSO 9.3 -- 11.1 83 1031.9(-1.0/3h) 15 7/8 -- --
11:00 6.5 5.6 4.2 SO 5.6 -- 11.1 85 1032.5(-0.5/3h) 15 7/8 -- --
10:00 6.5 4.6 4.1 SSO 9.3 -- 11.1 85 1033(0.0/3h) 15 7/8 -- --
09:00 6.3 4.8 3.9 SO 7.4 -- 11.1 85 1033(-0.1/3h) 15 7/8 -- --
08:00 6.1 4.6 3.9 SO 7.4 -- 11.1 86 1033(-0.4/3h) 15 7/8 -- --
07:00 5.9 4.9 4.1 SO 5.6 -- 9.3 88 1033(-0.6/3h) 15 7/8 -- --
06:00 5.8 4.8 3.9 SO 5.6 -- 11.1 88 1033(-0.7/3h) 15 6/8 -- --
05:00 6.0 4.5 3.8 SO 7.4 -- 11.1 86 1033.5(-1.1/3h) 18 6/8 -- --
04:00 6.0 5 3.4 SO 5.6 -- 9.3 83 1033.7(-0.9/3h) 20 -- -- --
03:00 5.8 4.2 3.7 SO 7.4 -- 11.1 86 1033.7(-0.8/3h) 14 -- -- --
02:00 5.5 4.4 3.8 SO 5.6 -- 9.3 89 1034.7(-0.1/3h) 11 -- -- --
01:00 5.5 4.4 3.6 SO 5.6 -- 9.3 88 1034.7(-0.3/3h) 11 -- -- --
00:00 5.5 3.9 3.3 SO 7.4 -- 11.1 86 1034.7(-0.6/3h) 14 -- -- --

1 Coordinated Universal Time. Actuellement il est 16:00 locale et 15:00 UTC.

2 Le vent souffle depuis la direction indiquée vers la direction oposée.

3 Les rafales max. sont disponible 40 min après l'heure du relevé.

4 Pour les stations d'altitude (plus de 600m) le géopotentiel du niveau le plus proche de la pression obligatoire est indiqué.

5 Les stations disposant d'un diffuseur peuvent indiquer "trace". Cela signifie que des précipitations ont touchés le sol mais que la quantité est inférieure à 0.1 mm.

Récapitulatif de la journée
Température [°C] Vent [km/h] Ensoleillement4 [h] Precipitations totale5 [mm] Pression [Hpa]
Min1 Max.2 Moy.3 Max. Min Max.
5.1 6.9 0 18.5 0 h 0 min 0 1026.0 1034.7

1 Température minimale relevée entre 18:00 UTC la veille et 18:00 UTC le jour donné.

2 Température maximale relevée entre 06:00 UTC le jour donné et 06:00 UTC le lendemain.

3 Vent moyen de la journée basé sur les relevés horaires.

4 Ensoleillement en heures relevé entre 06:00 UTC la veille et 06:00 UTC le jour donné.

5 Précipitations totales tombées entre 06:00 UTC la jour donné et 06:00 UTC le lendemain.

Graphiques horaires